createdAt,value
2023-03-28T00:01:15.040Z,1.67
2023-03-28T00:03:42.806Z,1.68
2023-03-28T00:06:16.860Z,1.72
2023-03-28T00:08:45.914Z,1.74
2023-03-28T00:11:19.932Z,1.63
2023-03-28T00:14:03.683Z,1.55
2023-03-28T00:16:35.746Z,1.56
2023-03-28T00:19:05.869Z,1.59
2023-03-28T00:21:36.105Z,1.56
2023-03-28T00:24:05.392Z,1.53
2023-03-28T00:26:35.562Z,1.41
2023-03-28T00:29:09.101Z,1.51
2023-03-28T00:31:38.939Z,1.49
2023-03-28T00:34:07.090Z,1.44
2023-03-28T00:36:34.411Z,1.54
2023-03-28T00:39:06.828Z,1.51
2023-03-28T00:41:40.246Z,1.52
2023-03-28T00:44:43.182Z,1.49
2023-03-28T00:47:30.875Z,1.50
2023-03-28T00:50:06.414Z,1.45
2023-03-28T00:52:40.964Z,1.50
2023-03-28T00:55:14.829Z,1.46
2023-03-28T00:57:44.729Z,1.47
2023-03-28T01:00:12.454Z,1.55
2023-03-28T01:02:42.070Z,1.44
2023-03-28T01:05:09.286Z,1.53
2023-03-28T01:07:42.121Z,1.51
2023-03-28T01:10:15.174Z,1.47
2023-03-28T01:12:46.452Z,1.51
2023-03-28T01:15:13.293Z,1.42
2023-03-28T01:17:41.492Z,1.49
2023-03-28T01:20:26.619Z,1.49
2023-03-28T01:23:08.363Z,1.48
2023-03-28T01:26:03.986Z,1.48
2023-03-28T01:28:50.737Z,1.38
2023-03-28T01:31:26.222Z,1.42
2023-03-28T01:34:26.518Z,1.34
2023-03-28T01:36:56.994Z,1.39
2023-03-28T01:39:47.413Z,1.44
2023-03-28T01:42:51.209Z,1.37
2023-03-28T01:45:22.242Z,1.39
2023-03-28T01:47:58.941Z,1.31
2023-03-28T01:50:32.334Z,1.27
2023-03-28T01:53:03.440Z,1.24
2023-03-28T01:55:41.998Z,1.28
2023-03-28T01:58:31.458Z,1.33
2023-03-28T02:01:15.626Z,1.25
2023-03-28T02:03:48.050Z,1.15
2023-03-28T02:06:14.994Z,1.29
2023-03-28T02:08:44.790Z,1.15
2023-03-28T02:11:11.363Z,1.23
2023-03-28T02:13:45.723Z,1.16
2023-03-28T02:16:14.066Z,1.16
2023-03-28T02:18:47.667Z,1.16
2023-03-28T02:21:21.330Z,1.15
2023-03-28T02:23:51.798Z,1.11
2023-03-28T02:26:19.288Z,1.12
2023-03-28T02:28:49.072Z,1.10
2023-03-28T02:31:18.154Z,1.11
2023-03-28T02:33:49.302Z,1.08
2023-03-28T02:36:48.137Z,1.04
2023-03-28T02:39:30.077Z,0.95
2023-03-28T02:42:19.972Z,1.01
2023-03-28T02:45:01.516Z,1.05
2023-03-28T02:47:55.617Z,1.04
2023-03-28T02:50:31.138Z,1.01
2023-03-28T02:53:44.835Z,1.04
2023-03-28T02:56:24.889Z,0.96
2023-03-28T02:58:59.887Z,1.04
2023-03-28T03:01:29.533Z,0.99
2023-03-28T03:03:58.272Z,1.04
2023-03-28T03:06:27.293Z,0.98
2023-03-28T03:08:53.893Z,1.01
2023-03-28T03:11:21.434Z,1.00
2023-03-28T03:13:48.008Z,0.95
2023-03-28T03:16:14.601Z,0.85
2023-03-28T03:18:41.613Z,0.94
2023-03-28T03:21:08.881Z,0.87
2023-03-28T03:23:36.726Z,0.78
2023-03-28T03:26:03.617Z,0.83
2023-03-28T03:28:33.428Z,0.77
2023-03-28T03:31:00.073Z,0.78
2023-03-28T03:33:26.890Z,0.75
2023-03-28T03:35:55.861Z,0.77
2023-03-28T03:38:22.725Z,0.69
2023-03-28T03:40:51.774Z,0.64
2023-03-28T03:43:21.232Z,0.65
2023-03-28T03:45:47.762Z,0.73
2023-03-28T03:48:14.771Z,0.68
2023-03-28T03:50:41.532Z,0.61
2023-03-28T03:53:10.374Z,0.65
2023-03-28T03:55:42.330Z,0.64
2023-03-28T03:58:12.034Z,0.66
2023-03-28T04:00:38.725Z,0.49
2023-03-28T04:03:08.716Z,0.53
2023-03-28T04:05:52.743Z,0.54
2023-03-28T04:08:24.019Z,0.60
2023-03-28T04:10:53.043Z,0.50
2023-03-28T04:13:19.581Z,0.57
2023-03-28T04:15:48.637Z,0.58
2023-03-28T04:18:20.703Z,0.60
2023-03-28T04:20:55.344Z,0.55
2023-03-28T04:23:25.907Z,0.66
2023-03-28T04:26:02.570Z,0.61
2023-03-28T04:28:29.491Z,0.59
2023-03-28T04:31:02.370Z,0.60
2023-03-28T04:33:34.801Z,0.67
2023-03-28T04:36:02.355Z,0.64
2023-03-28T04:38:41.765Z,0.64
2023-03-28T04:41:10.586Z,0.57
2023-03-28T04:43:37.132Z,0.50
2023-03-28T04:46:04.038Z,0.55
2023-03-28T04:48:33.091Z,0.53
2023-03-28T04:51:02.206Z,0.53
2023-03-28T04:53:31.015Z,0.59
2023-03-28T04:55:57.724Z,0.51
2023-03-28T04:58:24.370Z,0.52
2023-03-28T05:00:53.951Z,0.48
2023-03-28T05:03:23.133Z,0.48
2023-03-28T05:05:56.657Z,0.54
2023-03-28T05:08:25.990Z,0.63
2023-03-28T05:10:52.598Z,0.62
2023-03-28T05:13:21.811Z,0.67
2023-03-28T05:15:48.505Z,0.70
2023-03-28T05:18:17.737Z,0.78
2023-03-28T05:20:44.322Z,0.87
2023-03-28T05:23:11.199Z,0.90
2023-03-28T05:25:37.743Z,0.97
2023-03-28T05:28:04.748Z,1.06
2023-03-28T05:30:33.528Z,1.17
2023-03-28T05:33:02.937Z,1.12
2023-03-28T05:35:32.559Z,1.20
2023-03-28T05:38:02.544Z,1.19
2023-03-28T05:40:31.651Z,1.27
2023-03-28T05:43:00.276Z,1.20
2023-03-28T05:45:26.859Z,1.27
2023-03-28T05:47:55.693Z,1.37
2023-03-28T05:50:22.997Z,1.36
2023-03-28T05:52:49.711Z,1.30
2023-03-28T05:55:16.361Z,1.36
2023-03-28T05:57:44.146Z,1.29
2023-03-28T06:00:14.250Z,1.44
2023-03-28T06:02:43.232Z,1.47
2023-03-28T06:05:15.409Z,1.48
2023-03-28T06:07:45.280Z,1.53
2023-03-28T06:10:13.788Z,1.67
2023-03-28T06:12:40.699Z,1.80
2023-03-28T06:15:11.127Z,1.78
2023-03-28T06:17:40.544Z,1.91
2023-03-28T06:20:09.719Z,1.89
2023-03-28T06:22:39.683Z,1.87
2023-03-28T06:25:09.288Z,1.89
2023-03-28T06:27:35.979Z,1.85
2023-03-28T06:30:07.133Z,2.03
2023-03-28T06:32:38.637Z,2.13
2023-03-28T06:35:05.716Z,2.14
2023-03-28T06:37:44.586Z,2.21
2023-03-28T06:40:15.366Z,2.21
2023-03-28T06:42:44.012Z,2.23
2023-03-28T06:45:10.881Z,2.31
2023-03-28T06:47:37.447Z,2.32
2023-03-28T06:50:34.253Z,2.40
2023-03-28T06:53:06.071Z,2.41
2023-03-28T06:55:32.599Z,2.59
2023-03-28T06:57:59.234Z,2.70
2023-03-28T07:00:25.999Z,2.75
2023-03-28T07:02:52.651Z,2.70
2023-03-28T07:05:25.180Z,2.60
2023-03-28T07:07:51.873Z,2.66
2023-03-28T07:10:21.253Z,2.70
2023-03-28T07:12:47.776Z,2.86
2023-03-28T07:15:22.087Z,2.98
2023-03-28T07:17:48.826Z,2.96
2023-03-28T07:20:17.732Z,3.09
2023-03-28T07:22:44.280Z,3.21
2023-03-28T07:25:18.165Z,3.30
2023-03-28T07:27:47.342Z,3.48
2023-03-28T07:30:20.986Z,3.48
2023-03-28T07:32:58.215Z,3.52
2023-03-28T07:35:37.264Z,3.34
2023-03-28T07:38:06.232Z,3.44
2023-03-28T07:40:35.509Z,3.42
2023-03-28T07:43:03.495Z,3.22
2023-03-28T07:45:32.711Z,2.99
2023-03-28T07:48:01.594Z,2.94
2023-03-28T07:50:28.295Z,3.04
2023-03-28T07:52:57.866Z,2.99
2023-03-28T07:55:32.617Z,3.28
2023-03-28T07:58:02.523Z,3.68
2023-03-28T08:00:33.790Z,3.53
2023-03-28T08:03:05.174Z,3.42
2023-03-28T08:05:34.263Z,3.61
2023-03-28T08:08:01.035Z,3.75
2023-03-28T08:10:27.610Z,3.66
2023-03-28T08:12:56.609Z,3.90
2023-03-28T08:15:25.548Z,4.06
2023-03-28T08:17:52.212Z,3.79
2023-03-28T08:20:21.471Z,3.89
2023-03-28T08:22:48.117Z,4.19
2023-03-28T08:25:15.241Z,4.14
2023-03-28T08:27:41.855Z,4.33
2023-03-28T08:30:08.581Z,3.92
2023-03-28T08:32:35.145Z,4.16
2023-03-28T08:35:10.981Z,4.67
2023-03-28T08:37:37.533Z,4.70
2023-03-28T08:40:08.541Z,4.44
2023-03-28T08:42:50.709Z,4.29
2023-03-28T08:45:41.001Z,4.45
2023-03-28T08:48:19.452Z,4.47
2023-03-28T08:51:15.120Z,4.62
2023-03-28T08:53:51.522Z,4.53
2023-03-28T08:56:18.134Z,4.68
2023-03-28T08:59:08.415Z,4.74
2023-03-28T09:01:37.816Z,4.95
2023-03-28T09:04:04.862Z,4.79
2023-03-28T09:06:44.315Z,5.10
2023-03-28T09:09:30.064Z,5.22
2023-03-28T09:12:00.999Z,5.40
2023-03-28T09:14:38.764Z,5.30
2023-03-28T09:17:43.588Z,5.36
2023-03-28T09:20:37.821Z,5.33
2023-03-28T09:23:42.064Z,5.33
2023-03-28T09:30:08.347Z,5.42
2023-03-28T09:32:39.678Z,5.48
2023-03-28T09:35:18.377Z,5.38
2023-03-28T09:37:50.337Z,5.31
2023-03-28T09:40:35.647Z,5.12
2023-03-28T09:43:23.965Z,5.20
2023-03-28T09:46:14.191Z,5.27
2023-03-28T09:48:51.973Z,5.17
2023-03-28T09:51:22.326Z,5.12
2023-03-28T09:53:48.911Z,5.20
2023-03-28T09:56:32.134Z,4.89
2023-03-28T09:59:07.801Z,5.25
2023-03-28T10:01:45.981Z,5.39
2023-03-28T10:04:21.278Z,5.76
2023-03-28T10:06:48.632Z,5.66
2023-03-28T10:09:25.664Z,5.89
2023-03-28T10:11:56.608Z,5.82
2023-03-28T10:14:32.815Z,5.27
2023-03-28T10:17:25.312Z,5.36
2023-03-28T10:20:00.699Z,5.27
2023-03-28T10:22:35.478Z,5.10
2023-03-28T10:25:07.508Z,5.16
2023-03-28T10:27:47.229Z,5.51
2023-03-28T10:30:13.769Z,5.73
2023-03-28T10:32:41.875Z,5.92
2023-03-28T10:35:10.014Z,5.94
2023-03-28T10:37:36.681Z,5.71
2023-03-28T10:40:22.384Z,5.33
2023-03-28T10:42:52.579Z,5.80
2023-03-28T10:45:26.916Z,5.98
2023-03-28T10:47:57.918Z,5.81
2023-03-28T10:50:50.837Z,5.86
2023-03-28T10:53:29.362Z,5.81
2023-03-28T10:56:38.398Z,6.40
2023-03-28T10:59:51.805Z,5.84
2023-03-28T11:03:03.682Z,5.65
2023-03-28T11:05:33.420Z,5.65
2023-03-28T11:08:24.110Z,5.51
2023-03-28T11:11:19.295Z,5.37
2023-03-28T11:14:03.444Z,5.18
2023-03-28T11:17:02.427Z,5.38
2023-03-28T11:20:08.711Z,5.48
2023-03-28T11:22:55.246Z,5.28
2023-03-28T11:25:51.002Z,5.47
2023-03-28T11:28:45.344Z,5.33
2023-03-28T11:31:20.474Z,5.28
2023-03-28T11:34:15.924Z,5.61
2023-03-28T11:36:53.491Z,5.52
2023-03-28T11:39:20.009Z,5.85
2023-03-28T11:41:54.915Z,5.99
2023-03-28T11:44:30.637Z,6.14
2023-03-28T11:47:08.445Z,6.12
2023-03-28T11:50:00.001Z,6.16
2023-03-28T11:52:30.732Z,6.13
2023-03-28T11:55:18.868Z,6.37
2023-03-28T11:58:12.928Z,6.31
2023-03-28T12:00:54.259Z,6.56
2023-03-28T12:03:29.303Z,6.77
2023-03-28T12:06:07.193Z,6.31
2023-03-28T12:08:47.590Z,6.15
2023-03-28T12:11:28.194Z,5.99
2023-03-28T12:14:23.411Z,5.75
2023-03-28T12:16:55.233Z,5.45
2023-03-28T12:19:42.757Z,5.56
2023-03-28T12:22:32.661Z,5.79
2023-03-28T12:25:24.743Z,5.71
2023-03-28T12:28:13.833Z,6.02
2023-03-28T12:30:50.969Z,6.10
2023-03-28T12:33:36.509Z,6.39
2023-03-28T12:36:12.915Z,6.22
2023-03-28T12:38:44.552Z,6.16
2023-03-28T12:41:24.353Z,6.52
2023-03-28T12:43:57.685Z,6.76
2023-03-28T12:46:29.780Z,6.47
2023-03-28T12:48:58.989Z,6.34
2023-03-28T12:51:33.903Z,6.53
2023-03-28T12:54:17.202Z,6.33
2023-03-28T12:56:48.067Z,6.61
2023-03-28T13:00:04.750Z,6.55
2023-03-28T13:02:50.019Z,6.46
2023-03-28T13:05:40.607Z,6.69
2023-03-28T13:08:29.147Z,6.93
2023-03-28T13:11:14.908Z,7.35
2023-03-28T13:14:15.056Z,7.42
2023-03-28T13:16:56.047Z,7.39
2023-03-28T13:19:43.271Z,6.83
2023-03-28T13:22:21.903Z,7.08
2023-03-28T13:24:50.751Z,7.30
2023-03-28T13:27:33.249Z,7.13
2023-03-28T13:30:03.668Z,6.91
2023-03-28T13:32:38.145Z,6.74
2023-03-28T13:35:05.910Z,6.12
2023-03-28T13:37:41.850Z,5.92
2023-03-28T13:40:40.696Z,5.65
2023-03-28T13:43:24.819Z,5.31
2023-03-28T13:45:57.490Z,5.35
2023-03-28T13:48:34.312Z,5.23
2023-03-28T13:51:06.874Z,5.05
2023-03-28T13:53:47.444Z,5.08
2023-03-28T13:56:27.610Z,4.97
2023-03-28T13:59:01.945Z,4.99
2023-03-28T14:01:42.085Z,4.84
2023-03-28T14:04:20.459Z,4.82
2023-03-28T14:06:48.129Z,4.89
2023-03-28T14:09:32.581Z,4.72
2023-03-28T14:12:13.474Z,4.94
2023-03-28T14:14:47.749Z,4.96
2023-03-28T14:17:22.641Z,5.25
2023-03-28T14:19:56.788Z,5.25
2023-03-28T14:22:28.614Z,5.20
2023-03-28T14:24:59.622Z,5.33
2023-03-28T14:30:42.548Z,5.28
2023-03-28T14:33:14.401Z,5.30
2023-03-28T14:35:45.693Z,5.27
2023-03-28T14:38:14.482Z,5.31
2023-03-28T14:40:46.132Z,5.46
2023-03-28T14:43:13.756Z,5.30
2023-03-28T14:45:43.794Z,5.35
2023-03-28T14:48:19.747Z,5.31
2023-03-28T14:50:52.170Z,5.30
2023-03-28T14:53:25.297Z,5.24
2023-03-28T14:55:54.578Z,5.22
2023-03-28T14:58:25.094Z,5.27
2023-03-28T15:00:55.094Z,5.35
2023-03-28T15:03:29.908Z,5.36
2023-03-28T15:06:00.011Z,5.29
2023-03-28T15:08:41.978Z,5.20
2023-03-28T15:11:12.525Z,5.24
2023-03-28T15:13:41.444Z,5.12
2023-03-28T15:16:09.108Z,5.05
2023-03-28T15:18:44.379Z,4.65
2023-03-28T15:21:11.746Z,4.56
2023-03-28T15:23:51.026Z,4.32
2023-03-28T15:26:31.907Z,4.11
2023-03-28T15:29:01.848Z,4.09
2023-03-28T15:31:31.620Z,4.14
2023-03-28T15:34:01.775Z,4.07
2023-03-28T15:36:34.809Z,4.08
2023-03-28T15:39:19.283Z,4.27
2023-03-28T15:41:48.048Z,4.24
2023-03-28T15:44:31.678Z,4.23
2023-03-28T15:47:04.385Z,4.25
2023-03-28T15:49:36.589Z,4.24
2023-03-28T15:52:14.393Z,4.19
2023-03-28T15:54:52.191Z,4.09
2023-03-28T15:57:31.197Z,4.03
2023-03-28T16:00:54.869Z,4.29
2023-03-28T16:03:28.952Z,4.11
2023-03-28T16:06:45.794Z,4.06
2023-03-28T16:09:20.691Z,4.12
2023-03-28T16:12:05.105Z,4.08
2023-03-28T16:15:11.868Z,3.99
2023-03-28T16:17:55.584Z,4.02
2023-03-28T16:20:31.216Z,4.01
2023-03-28T16:22:59.956Z,4.05
2023-03-28T16:25:29.030Z,4.02
2023-03-28T16:28:00.812Z,3.93
2023-03-28T16:30:42.556Z,4.10
2023-03-28T16:33:11.716Z,3.92
2023-03-28T16:35:40.793Z,3.82
2023-03-28T16:38:07.742Z,3.61
2023-03-28T16:40:36.538Z,3.76
2023-03-28T16:43:03.460Z,3.65
2023-03-28T16:45:32.660Z,3.71
2023-03-28T16:48:01.812Z,3.73
2023-03-28T16:50:28.387Z,3.71
2023-03-28T16:52:55.028Z,3.68
2023-03-28T16:55:21.663Z,3.65
2023-03-28T16:57:51.040Z,3.52
2023-03-28T17:00:20.940Z,3.54
2023-03-28T17:02:47.860Z,3.48
2023-03-28T17:05:18.417Z,3.48
2023-03-28T17:07:47.218Z,3.39
2023-03-28T17:10:13.789Z,3.35
2023-03-28T17:12:44.886Z,3.28
2023-03-28T17:15:23.010Z,3.15
2023-03-28T17:17:49.662Z,3.29
2023-03-28T17:20:17.246Z,3.23
2023-03-28T17:22:44.248Z,3.11
2023-03-28T17:25:11.112Z,3.33
2023-03-28T17:27:39.985Z,3.18
2023-03-28T17:30:07.514Z,3.00
2023-03-28T17:32:36.555Z,3.03
2023-03-28T17:35:03.986Z,3.02
2023-03-28T17:37:31.046Z,3.08
2023-03-28T17:40:03.516Z,3.01
2023-03-28T17:42:32.620Z,2.98
2023-03-28T17:45:02.175Z,2.82
2023-03-28T17:47:28.811Z,2.81
2023-03-28T17:49:57.068Z,3.13
2023-03-28T17:52:24.473Z,3.64
2023-03-28T17:54:56.338Z,3.12
2023-03-28T17:57:27.580Z,2.96
2023-03-28T17:59:57.570Z,2.87
2023-03-28T18:02:26.476Z,2.64
2023-03-28T18:04:53.677Z,2.76
2023-03-28T18:07:20.320Z,2.77
2023-03-28T18:09:46.871Z,2.66
2023-03-28T18:12:15.873Z,2.61
2023-03-28T18:14:42.497Z,2.63
2023-03-28T18:17:09.518Z,2.63
2023-03-28T18:19:36.088Z,2.65
2023-03-28T18:22:03.531Z,2.57
2023-03-28T18:24:30.088Z,2.60
2023-03-28T18:27:01.581Z,2.68
2023-03-28T18:29:32.915Z,2.59
2023-03-28T18:31:59.564Z,2.50
2023-03-28T18:34:28.514Z,2.38
2023-03-28T18:36:55.709Z,2.39
2023-03-28T18:39:25.853Z,2.48
2023-03-28T18:41:52.412Z,2.40
2023-03-28T18:44:19.081Z,2.41
2023-03-28T18:46:47.053Z,2.48
2023-03-28T18:49:14.063Z,2.30
2023-03-28T18:51:42.407Z,2.40
2023-03-28T18:54:09.180Z,2.32
2023-03-28T18:56:35.745Z,2.29
2023-03-28T18:59:02.518Z,2.23
2023-03-28T19:01:32.920Z,2.26
2023-03-28T19:03:59.774Z,2.26
2023-03-28T19:06:26.490Z,2.35
2023-03-28T19:08:53.127Z,2.38
2023-03-28T19:11:22.542Z,2.38
2023-03-28T19:13:50.393Z,2.46
2023-03-28T19:16:19.393Z,2.40
2023-03-28T19:18:47.064Z,2.50
2023-03-28T19:21:19.231Z,2.39
2023-03-28T19:23:51.682Z,2.43
2023-03-28T19:26:22.255Z,2.39
2023-03-28T19:28:49.644Z,2.43
2023-03-28T19:31:21.904Z,2.49
2023-03-28T19:33:48.802Z,2.55
2023-03-28T19:36:18.537Z,2.40
2023-03-28T19:38:49.945Z,2.44
2023-03-28T19:41:19.762Z,2.43
2023-03-28T19:43:49.101Z,2.29
2023-03-28T19:46:26.324Z,2.37
2023-03-28T19:48:54.604Z,2.49
2023-03-28T19:51:21.194Z,2.41
2023-03-28T19:53:47.780Z,2.40
2023-03-28T19:56:18.945Z,2.35
2023-03-28T19:58:46.526Z,2.31
2023-03-28T20:01:15.526Z,2.32
2023-03-28T20:03:42.326Z,2.36
2023-03-28T20:06:12.102Z,2.39
2023-03-28T20:08:42.694Z,2.46
2023-03-28T20:11:11.979Z,2.46
2023-03-28T20:13:39.229Z,2.45
2023-03-28T20:16:07.960Z,2.52
2023-03-28T20:18:37.027Z,2.60
2023-03-28T20:21:07.193Z,2.66
2023-03-28T20:23:40.261Z,2.55
2023-03-28T20:26:25.902Z,2.45
2023-03-28T20:28:59.268Z,2.34
2023-03-28T20:31:29.181Z,2.47
2023-03-28T20:33:58.256Z,2.34
2023-03-28T20:36:32.873Z,2.31
2023-03-28T20:39:05.080Z,2.32
2023-03-28T20:41:34.161Z,2.38
2023-03-28T20:44:03.846Z,2.34
2023-03-28T20:46:34.317Z,2.26
2023-03-28T20:49:01.046Z,2.25
2023-03-28T20:51:31.012Z,2.16
2023-03-28T20:54:01.364Z,2.03
2023-03-28T20:56:31.946Z,2.09
2023-03-28T20:58:59.584Z,2.05
2023-03-28T21:01:29.951Z,1.86
2023-03-28T21:04:02.238Z,1.88
2023-03-28T21:06:35.282Z,1.93
2023-03-28T21:09:08.188Z,1.98
2023-03-28T21:11:37.030Z,1.92
2023-03-28T21:14:05.868Z,1.82
2023-03-28T21:16:32.984Z,1.82
2023-03-28T21:19:01.149Z,1.89
2023-03-28T21:21:33.105Z,1.84
2023-03-28T21:24:00.569Z,1.75
2023-03-28T21:26:27.654Z,1.86
2023-03-28T21:28:56.490Z,1.85
2023-03-28T21:31:25.985Z,1.66
2023-03-28T21:33:57.697Z,1.76
2023-03-28T21:36:26.453Z,1.79
2023-03-28T21:38:53.356Z,1.88
2023-03-28T21:41:27.102Z,1.73
2023-03-28T21:43:56.799Z,1.79
2023-03-28T21:46:23.585Z,1.61
2023-03-28T21:48:50.380Z,1.66
2023-03-28T21:51:17.835Z,1.48
2023-03-28T21:53:44.501Z,1.61
2023-03-28T21:56:16.518Z,1.60
2023-03-28T21:58:43.220Z,1.39
2023-03-28T22:01:12.861Z,1.66
2023-03-28T22:03:45.695Z,1.52
2023-03-28T22:06:18.585Z,1.59
2023-03-28T22:08:52.531Z,1.65
2023-03-28T22:11:27.590Z,1.56
2023-03-28T22:14:01.477Z,1.70
2023-03-28T22:16:37.485Z,1.53
2023-03-28T22:19:05.995Z,1.51
2023-03-28T22:21:35.237Z,1.41
2023-03-28T22:24:07.164Z,1.51
2023-03-28T22:26:33.857Z,1.45
2023-03-28T22:29:04.005Z,1.56
2023-03-28T22:31:30.684Z,1.46
2023-03-28T22:33:57.509Z,1.44
2023-03-28T22:36:24.269Z,1.37
2023-03-28T22:38:51.962Z,1.32
2023-03-28T22:41:18.594Z,1.35
2023-03-28T22:43:47.841Z,1.44
2023-03-28T22:46:20.480Z,1.37
2023-03-28T22:48:53.949Z,1.48
2023-03-28T22:51:25.194Z,1.40
2023-03-28T22:53:52.991Z,1.50
2023-03-28T22:56:19.626Z,1.40
2023-03-28T22:58:48.939Z,1.38
2023-03-28T23:01:15.549Z,1.38
2023-03-28T23:03:42.167Z,1.30
2023-03-28T23:06:13.226Z,1.19
2023-03-28T23:08:42.467Z,1.40
2023-03-28T23:11:09.090Z,1.39
2023-03-28T23:13:35.707Z,1.35
2023-03-28T23:16:02.758Z,1.22
2023-03-28T23:18:33.582Z,1.15
2023-03-28T23:21:08.272Z,1.20
2023-03-28T23:23:38.948Z,1.16
2023-03-28T23:26:08.768Z,1.23
2023-03-28T23:28:35.328Z,1.16
2023-03-28T23:31:04.385Z,1.03
2023-03-28T23:33:33.900Z,1.23
2023-03-28T23:36:03.276Z,1.33
2023-03-28T23:38:32.695Z,1.37
2023-03-28T23:40:59.674Z,1.13
2023-03-28T23:43:26.327Z,0.93
2023-03-28T23:45:55.959Z,1.02
2023-03-28T23:48:24.689Z,1.04
2023-03-28T23:50:51.397Z,0.90
2023-03-28T23:53:23.291Z,0.78
2023-03-28T23:55:53.248Z,0.99
2023-03-28T23:58:20.539Z,0.94
